Time;durP1;ratioP1;P1;durP2;ratioP2;P2;SDS_P1;SDS_P2;PMS_P1;PMS_P2;Temp;Humidity;BMP_temperature;BMP_pressure;BME280_temperature;BME280_humidity;BME280_pressure;Samples;Min_cycle;Max_cycle;Signal;HPM_P1;HPM_P2
2022/06/24 00:00:29;;;;;;;;;;;10.60;99.90;;;;;;5004907;28;20416;-71
2022/06/24 00:02:55;;;;;;;;;;;10.60;99.90;;;;;;5005749;28;19913;-71
2022/06/24 00:05:22;;;;;;;;;;;10.60;99.90;;;;;;5004113;28;19913;-71
2022/06/24 00:07:49;;;;;;;;;;;10.70;99.90;;;;;;5003798;28;19917;-71
2022/06/24 00:10:16;;;;;;;;;;;10.70;99.90;;;;;;5005531;28;19913;-71
2022/06/24 00:12:44;;;;;;;;;;;10.70;99.90;;;;;;5003467;28;20290;-71
2022/06/24 00:15:11;;;;;;;;;;;10.80;99.90;;;;;;5003770;28;20351;-72
2022/06/24 00:17:37;;;;;;;;;;;10.80;99.90;;;;;;5003383;28;20000;-71
2022/06/24 00:20:06;;;;;;;;;;;10.90;99.90;;;;;;5004312;28;20321;-71
2022/06/24 00:22:40;;;;;;;;;;;11.00;99.90;;;;;;5004987;28;19905;-71
2022/06/24 00:25:11;;;;;;;;;;;11.00;99.90;;;;;;5005667;28;19931;-71
2022/06/24 00:27:38;;;;;;;;;;;11.10;99.90;;;;;;5003301;28;19906;-70
2022/06/24 00:30:10;;;;;;;;;;;11.10;99.90;;;;;;5004123;28;19907;-71
2022/06/24 00:32:37;;;;;;;;;;;11.20;99.90;;;;;;5005179;28;20282;-71
2022/06/24 00:35:09;;;;;;;;;;;11.30;99.90;;;;;;5003559;28;20000;-71
2022/06/24 00:37:36;;;;;;;;;;;11.30;99.90;;;;;;5002647;28;19949;-71
2022/06/24 00:40:12;;;;;;;;;;;11.40;99.90;;;;;;5005497;28;19916;-71
2022/06/24 00:42:39;;;;;;;;;;;11.50;99.90;;;;;;5003137;28;20263;-71
2022/06/24 00:45:11;;;;;;;;;;;11.50;99.90;;;;;;5003675;28;20412;-70
2022/06/24 00:47:39;;;;;;;;;;;11.60;99.90;;;;;;5002796;28;19906;-71
2022/06/24 00:50:11;;;;;;;;;;;11.60;99.90;;;;;;5003678;28;19928;-71
2022/06/24 00:52:38;;;;;;;;;;;11.70;99.90;;;;;;5002798;28;19906;-71
2022/06/24 00:55:05;;;;;;;;;;;11.80;99.90;;;;;;5003007;28;19905;-71
2022/06/24 00:57:35;;;;;;;;;;;11.90;99.90;;;;;;5004563;28;19941;-70
2022/06/24 01:00:05;;;;;;;;;;;11.90;99.90;;;;;;5008792;28;19913;-71
2022/06/24 01:02:32;;;;;;;;;;;12.00;99.90;;;;;;5003661;28;19957;-71
2022/06/24 01:05:09;;;;;;;;;;;12.00;99.90;;;;;;5003782;28;19968;-71
2022/06/24 01:07:37;;;;;;;;;;;12.00;99.90;;;;;;5003751;28;20068;-71
2022/06/24 01:10:04;;;;;;;;;;;12.10;99.90;;;;;;5002382;28;20354;-71
2022/06/24 01:12:31;;;;;;;;;;;12.20;99.90;;;;;;5004059;28;19996;-71
2022/06/24 01:14:58;;;;;;;;;;;12.30;99.90;;;;;;5010044;28;19916;-71
2022/06/24 01:17:24;;;;;;;;;;;12.40;99.90;;;;;;5013913;28;19906;-71
2022/06/24 01:19:51;;;;;;;;;;;12.40;99.90;;;;;;5013687;28;19905;-71
2022/06/24 01:22:24;;;;;;;;;;;12.40;99.90;;;;;;5013750;28;20356;-71
2022/06/24 01:24:50;;;;;;;;;;;12.40;99.90;;;;;;5014375;28;19906;-71
2022/06/24 01:27:17;;;;;;;;;;;12.50;99.90;;;;;;5017573;28;20366;-71
2022/06/24 01:29:44;;;;;;;;;;;12.50;99.90;;;;;;5017707;28;19911;-71
2022/06/24 01:32:11;;;;;;;;;;;12.60;99.90;;;;;;5017682;28;19905;-70
2022/06/24 01:34:38;;;;;;;;;;;12.70;99.90;;;;;;5017628;28;19912;-71
2022/06/24 01:37:05;;;;;;;;;;;12.70;99.90;;;;;;5017367;28;19906;-71
2022/06/24 01:39:32;;;;;;;;;;;12.80;99.90;;;;;;5005505;28;19910;-71
2022/06/24 01:41:58;;;;;;;;;;;12.80;99.90;;;;;;5009999;28;19918;-71
2022/06/24 01:44:26;;;;;;;;;;;12.80;99.90;;;;;;5004182;28;19913;-72
2022/06/24 01:46:52;;;;;;;;;;;12.90;99.90;;;;;;4998330;28;19906;-70
2022/06/24 01:49:19;;;;;;;;;;;12.90;99.90;;;;;;5008849;28;19906;-70
2022/06/24 01:51:47;;;;;;;;;;;12.90;99.90;;;;;;5004931;28;19912;-70
2022/06/24 01:54:14;;;;;;;;;;;12.90;99.90;;;;;;5001063;28;19948;-71
2022/06/24 01:56:40;;;;;;;;;;;12.90;99.90;;;;;;4999089;28;19909;-71
2022/06/24 01:59:07;;;;;;;;;;;13.00;99.90;;;;;;5006144;28;20040;-71
2022/06/24 02:01:34;;;;;;;;;;;13.00;99.90;;;;;;5006816;28;20366;-70
2022/06/24 02:04:00;;;;;;;;;;;13.10;99.90;;;;;;5007719;28;19921;-70
2022/06/24 02:06:27;;;;;;;;;;;13.10;99.90;;;;;;5011197;28;19943;-71
2022/06/24 02:08:55;;;;;;;;;;;13.10;99.90;;;;;;5017118;28;20378;-71
2022/06/24 02:14:09;;;;;;;;;;;13.10;99.90;;;;;;5016608;28;20055;-71
2022/06/24 02:16:36;;;;;;;;;;;13.20;99.90;;;;;;5015456;28;20286;-70
2022/06/24 02:19:03;;;;;;;;;;;13.20;99.90;;;;;;5013715;28;19913;-71
2022/06/24 02:21:30;;;;;;;;;;;13.20;99.90;;;;;;5013922;28;19914;-71
2022/06/24 02:23:57;;;;;;;;;;;13.20;99.90;;;;;;5013395;28;20392;-70
2022/06/24 02:26:25;;;;;;;;;;;13.20;99.90;;;;;;5004979;28;19917;-70
2022/06/24 02:28:52;;;;;;;;;;;13.20;99.90;;;;;;5002156;28;20409;-70
2022/06/24 02:31:19;;;;;;;;;;;13.30;99.90;;;;;;5014297;28;19913;-70
2022/06/24 02:33:46;;;;;;;;;;;13.30;99.90;;;;;;5014416;28;19912;-70
2022/06/24 02:36:14;;;;;;;;;;;13.40;99.90;;;;;;5014816;28;19910;-70
2022/06/24 02:38:41;;;;;;;;;;;13.40;99.90;;;;;;5016320;28;19912;-70
2022/06/24 02:41:07;;;;;;;;;;;13.40;99.90;;;;;;5016587;28;19914;-70
2022/06/24 02:43:35;;;;;;;;;;;13.50;99.90;;;;;;5016542;28;19952;-70
2022/06/24 02:46:03;;;;;;;;;;;13.50;99.90;;;;;;5016315;28;19911;-70
2022/06/24 02:48:30;;;;;;;;;;;13.60;99.90;;;;;;5016016;28;19905;-70
2022/06/24 02:50:58;;;;;;;;;;;13.60;99.90;;;;;;5016310;28;19906;-70
2022/06/24 02:53:26;;;;;;;;;;;13.60;99.90;;;;;;5016354;28;19932;-70
2022/06/24 02:55:53;;;;;;;;;;;13.70;99.90;;;;;;5016136;28;20332;-70
2022/06/24 02:58:20;;;;;;;;;;;13.70;99.90;;;;;;5016049;28;20382;-71
2022/06/24 03:00:47;;;;;;;;;;;13.70;99.90;;;;;;5015915;28;19917;-71
2022/06/24 03:03:14;;;;;;;;;;;13.60;99.90;;;;;;5016196;28;19905;-71
2022/06/24 03:05:41;;;;;;;;;;;13.70;99.90;;;;;;5016141;28;20321;-71
2022/06/24 03:08:08;;;;;;;;;;;13.70;99.90;;;;;;5016075;28;19913;-71
2022/06/24 03:10:35;;;;;;;;;;;13.70;99.90;;;;;;5016116;28;20310;-70
2022/06/24 03:13:01;;;;;;;;;;;13.80;99.90;;;;;;5016125;28;19906;-71
2022/06/24 03:15:28;;;;;;;;;;;13.80;99.90;;;;;;5015703;28;20343;-71
2022/06/24 03:17:55;;;;;;;;;;;13.90;99.90;;;;;;5015757;28;19905;-71
2022/06/24 03:20:22;;;;;;;;;;;13.80;99.90;;;;;;5015946;28;19952;-71
2022/06/24 03:22:48;;;;;;;;;;;13.80;99.90;;;;;;5015929;28;20354;-71
2022/06/24 03:25:15;;;;;;;;;;;13.90;99.90;;;;;;5015891;28;20273;-71
2022/06/24 03:27:42;;;;;;;;;;;13.90;99.90;;;;;;5015718;28;20359;-70
2022/06/24 03:30:09;;;;;;;;;;;13.90;99.90;;;;;;5015907;28;19906;-70
2022/06/24 03:32:36;;;;;;;;;;;13.80;99.90;;;;;;5015596;28;20263;-71
2022/06/24 03:35:03;;;;;;;;;;;13.80;99.90;;;;;;5015675;28;19912;-71
2022/06/24 03:37:30;;;;;;;;;;;13.70;99.90;;;;;;5015697;28;19905;-71
2022/06/24 03:39:57;;;;;;;;;;;13.80;99.90;;;;;;5015613;28;19915;-71
2022/06/24 03:42:24;;;;;;;;;;;13.80;99.90;;;;;;5015578;28;20022;-71
2022/06/24 03:44:50;;;;;;;;;;;13.80;99.90;;;;;;5015181;28;19905;-71
2022/06/24 03:47:17;;;;;;;;;;;13.90;99.90;;;;;;5014337;28;20313;-71
2022/06/24 03:49:44;;;;;;;;;;;14.00;99.90;;;;;;5013561;28;19951;-70
2022/06/24 03:52:10;;;;;;;;;;;14.00;99.90;;;;;;5015368;28;19909;-71
2022/06/24 03:54:37;;;;;;;;;;;14.00;99.90;;;;;;5015160;28;19906;-70
2022/06/24 03:57:04;;;;;;;;;;;14.00;99.90;;;;;;5015077;28;19905;-70
2022/06/24 03:59:31;;;;;;;;;;;14.00;99.90;;;;;;5015104;28;19935;-70
2022/06/24 04:01:58;;;;;;;;;;;14.00;99.90;;;;;;5014462;28;19914;-71
2022/06/24 04:04:25;;;;;;;;;;;14.00;99.90;;;;;;5003906;28;19906;-71
2022/06/24 04:06:51;;;;;;;;;;;14.00;99.90;;;;;;5006258;28;19924;-71
2022/06/24 04:09:18;;;;;;;;;;;13.90;99.90;;;;;;5013968;28;20274;-72
2022/06/24 04:11:45;;;;;;;;;;;13.90;99.90;;;;;;5013292;28;19906;-73
2022/06/24 04:14:11;;;;;;;;;;;13.90;99.90;;;;;;5008280;28;19906;-72
2022/06/24 04:16:38;;;;;;;;;;;13.90;99.90;;;;;;5009749;28;20412;-72
2022/06/24 04:19:05;;;;;;;;;;;13.90;99.90;;;;;;5014627;28;19906;-72
2022/06/24 04:21:32;;;;;;;;;;;13.90;99.90;;;;;;5014313;28;19964;-72
2022/06/24 04:23:58;;;;;;;;;;;13.90;99.90;;;;;;5014320;28;19906;-72
2022/06/24 04:26:25;;;;;;;;;;;13.90;99.90;;;;;;5014250;28;19905;-72
2022/06/24 04:28:51;;;;;;;;;;;13.90;99.90;;;;;;5014124;28;20311;-73
2022/06/24 04:31:18;;;;;;;;;;;13.90;99.90;;;;;;5014386;28;19913;-72
2022/06/24 04:33:45;;;;;;;;;;;13.90;99.90;;;;;;5014063;28;19959;-72
2022/06/24 04:36:15;;;;;;;;;;;13.90;99.90;;;;;;5014195;28;19912;-72
2022/06/24 04:38:42;;;;;;;;;;;13.90;99.90;;;;;;5014126;28;19905;-72
2022/06/24 04:41:18;;;;;;;;;;;13.80;99.90;;;;;;5013898;28;19913;-72
2022/06/24 04:43:45;;;;;;;;;;;13.80;99.90;;;;;;5011232;28;19909;-72
2022/06/24 04:46:12;;;;;;;;;;;13.80;99.90;;;;;;5012112;28;20354;-72
2022/06/24 04:48:38;;;;;;;;;;;13.80;99.90;;;;;;4999551;28;19911;-72
2022/06/24 04:51:06;;;;;;;;;;;13.70;99.90;;;;;;5013863;28;19906;-72
2022/06/24 04:53:32;;;;;;;;;;;13.70;99.90;;;;;;5014042;28;19912;-72
2022/06/24 04:55:59;;;;;;;;;;;13.70;99.90;;;;;;5013662;28;19905;-72
2022/06/24 04:58:25;;;;;;;;;;;13.70;99.90;;;;;;5013220;28;19949;-73
2022/06/24 05:00:52;;;;;;;;;;;13.70;99.90;;;;;;5012554;28;20015;-72
2022/06/24 05:03:19;;;;;;;;;;;13.70;99.90;;;;;;5010543;28;20354;-72
2022/06/24 05:05:45;;;;;;;;;;;13.70;99.90;;;;;;5012060;28;19944;-72
2022/06/24 05:08:12;;;;;;;;;;;13.60;99.90;;;;;;5010556;28;20000;-72
2022/06/24 05:10:40;;;;;;;;;;;13.60;99.90;;;;;;5012113;28;19905;-72
2022/06/24 05:13:08;;;;;;;;;;;13.60;99.90;;;;;;5013670;28;19959;-72
2022/06/24 05:15:35;;;;;;;;;;;13.70;99.90;;;;;;5012945;28;19906;-72
2022/06/24 05:18:02;;;;;;;;;;;13.60;99.90;;;;;;5013541;28;19906;-72
2022/06/24 05:20:30;;;;;;;;;;;13.60;99.90;;;;;;5013530;28;20365;-72
2022/06/24 05:22:56;;;;;;;;;;;13.60;99.90;;;;;;5013591;28;19913;-72
2022/06/24 05:25:23;;;;;;;;;;;13.50;99.90;;;;;;5013498;28;19905;-72
2022/06/24 05:27:50;;;;;;;;;;;13.50;99.90;;;;;;5013372;28;19952;-72
2022/06/24 05:30:16;;;;;;;;;;;13.50;99.90;;;;;;5013640;28;19909;-72
2022/06/24 05:32:43;;;;;;;;;;;13.50;99.90;;;;;;5013633;28;20358;-72
2022/06/24 05:35:10;;;;;;;;;;;13.50;99.90;;;;;;5012610;28;19913;-72
2022/06/24 05:37:38;;;;;;;;;;;13.50;99.90;;;;;;5010948;28;19905;-72
2022/06/24 05:40:06;;;;;;;;;;;13.40;99.90;;;;;;5010812;28;19912;-72
2022/06/24 05:42:33;;;;;;;;;;;13.40;99.90;;;;;;5007842;28;19996;-72
2022/06/24 05:45:00;;;;;;;;;;;13.40;99.90;;;;;;5009047;28;20243;-72
2022/06/24 05:47:27;;;;;;;;;;;13.40;99.90;;;;;;5010736;28;19921;-72
2022/06/24 05:49:53;;;;;;;;;;;13.40;99.90;;;;;;5011650;28;19906;-72
2022/06/24 05:55:02;;;;;;;;;;;13.40;99.90;;;;;;5011430;28;19910;-72
2022/06/24 05:55:06;;;;;;;;;;;13.40;99.90;;;;;;5012433;28;19941;-73
2022/06/24 05:57:33;;;;;;;;;;;13.40;99.90;;;;;;5011993;28;19996;-72
2022/06/24 06:00:00;;;;;;;;;;;13.40;99.90;;;;;;5012308;28;19906;-72
2022/06/24 06:02:27;;;;;;;;;;;13.40;99.90;;;;;;5009876;28;20278;-72
2022/06/24 06:04:53;;;;;;;;;;;13.30;99.90;;;;;;5003716;28;19912;-73
2022/06/24 06:07:20;;;;;;;;;;;13.30;99.90;;;;;;5004094;28;19918;-73
2022/06/24 06:09:47;;;;;;;;;;;13.30;99.90;;;;;;5011995;28;20290;-72
2022/06/24 06:12:14;;;;;;;;;;;13.30;99.90;;;;;;5016041;28;19905;-73
2022/06/24 06:14:41;;;;;;;;;;;13.30;99.90;;;;;;5016573;28;20278;-72
2022/06/24 06:17:07;;;;;;;;;;;13.30;99.90;;;;;;5016925;28;19913;-72
2022/06/24 06:19:34;;;;;;;;;;;13.30;99.90;;;;;;5012504;28;19945;-72
2022/06/24 06:22:02;;;;;;;;;;;13.20;99.90;;;;;;5013435;28;19917;-72
2022/06/24 06:24:30;;;;;;;;;;;13.20;99.90;;;;;;5014719;28;20405;-72
2022/06/24 06:27:00;;;;;;;;;;;13.20;99.90;;;;;;5010675;28;20363;-72
2022/06/24 06:29:26;;;;;;;;;;;13.20;99.90;;;;;;5011968;28;19948;-72
2022/06/24 06:31:53;;;;;;;;;;;13.20;99.90;;;;;;5008061;28;20385;-72
2022/06/24 06:34:20;;;;;;;;;;;13.20;99.90;;;;;;5009136;28;19909;-72
2022/06/24 06:36:47;;;;;;;;;;;13.20;99.90;;;;;;5013855;28;20408;-72
2022/06/24 06:39:13;;;;;;;;;;;13.10;99.90;;;;;;5013509;28;20375;-72
2022/06/24 06:41:40;;;;;;;;;;;13.10;99.90;;;;;;5014093;28;19918;-72
2022/06/24 06:44:07;;;;;;;;;;;13.10;99.90;;;;;;5014322;28;19996;-72
2022/06/24 06:46:33;;;;;;;;;;;13.20;99.90;;;;;;5012957;28;19909;-72
2022/06/24 06:49:00;;;;;;;;;;;13.10;99.90;;;;;;5011133;28;19906;-72
2022/06/24 06:51:27;;;;;;;;;;;13.10;99.90;;;;;;5014062;28;19959;-72
2022/06/24 06:53:53;;;;;;;;;;;13.10;99.90;;;;;;5014099;28;20384;-71
2022/06/24 06:56:20;;;;;;;;;;;13.10;99.90;;;;;;5013437;28;19963;-71
2022/06/24 06:58:46;;;;;;;;;;;13.10;99.90;;;;;;5010907;28;19913;-72
2022/06/24 07:01:13;;;;;;;;;;;13.00;99.90;;;;;;5013393;28;19909;-72
2022/06/24 07:03:40;;;;;;;;;;;13.00;99.90;;;;;;5008546;28;19905;-72
2022/06/24 07:06:06;;;;;;;;;;;13.00;99.90;;;;;;5005785;28;19910;-72
2022/06/24 07:08:33;;;;;;;;;;;13.00;99.90;;;;;;5015657;28;20401;-72
2022/06/24 07:11:00;;;;;;;;;;;12.90;99.90;;;;;;5015346;28;20384;-72
2022/06/24 07:13:27;;;;;;;;;;;12.90;99.90;;;;;;5015528;28;19906;-72
2022/06/24 07:15:54;;;;;;;;;;;12.90;99.90;;;;;;5015720;28;19951;-72
2022/06/24 07:18:20;;;;;;;;;;;12.80;99.90;;;;;;5015229;28;19905;-72
2022/06/24 07:20:47;;;;;;;;;;;12.80;99.90;;;;;;5015137;28;19918;-72
2022/06/24 07:23:14;;;;;;;;;;;12.80;99.90;;;;;;5014692;28;19911;-72
2022/06/24 07:25:40;;;;;;;;;;;12.70;99.90;;;;;;5015359;28;20004;-72
2022/06/24 07:28:07;;;;;;;;;;;12.70;99.90;;;;;;5014142;28;19905;-72
2022/06/24 07:30:34;;;;;;;;;;;12.70;99.90;;;;;;5015527;28;19905;-72
2022/06/24 07:33:00;;;;;;;;;;;12.70;99.90;;;;;;5015042;28;19959;-72
2022/06/24 07:35:27;;;;;;;;;;;12.60;99.90;;;;;;5015140;28;19916;-72
2022/06/24 07:37:54;;;;;;;;;;;12.60;99.90;;;;;;5014913;28;19932;-72
2022/06/24 07:40:20;;;;;;;;;;;12.50;99.90;;;;;;5015035;28;19952;-72
2022/06/24 07:42:47;;;;;;;;;;;12.50;99.90;;;;;;5012949;28;20261;-72
2022/06/24 07:45:14;;;;;;;;;;;12.50;99.90;;;;;;5012469;28;19932;-72
2022/06/24 07:47:40;;;;;;;;;;;12.40;99.90;;;;;;5012948;28;19906;-72
2022/06/24 07:50:07;;;;;;;;;;;12.40;99.90;;;;;;5013802;28;19917;-72
2022/06/24 07:52:34;;;;;;;;;;;12.40;99.90;;;;;;5008985;28;19906;-72
2022/06/24 07:57:45;;;;;;;;;;;12.40;99.90;;;;;;5008373;28;19960;-72
2022/06/24 08:00:12;;;;;;;;;;;12.30;99.90;;;;;;5010694;28;19996;-72
2022/06/24 08:02:39;;;;;;;;;;;12.30;99.90;;;;;;5009663;28;19912;-72
2022/06/24 08:05:05;;;;;;;;;;;12.30;99.90;;;;;;5008708;28;19921;-72
2022/06/24 08:07:32;;;;;;;;;;;12.20;99.90;;;;;;5011223;28;19924;-72
2022/06/24 08:09:59;;;;;;;;;;;12.20;99.90;;;;;;5007557;28;19906;-72
2022/06/24 08:12:25;;;;;;;;;;;12.20;99.90;;;;;;5014161;28;19910;-72
2022/06/24 08:14:52;;;;;;;;;;;12.20;99.90;;;;;;5013931;28;19991;-72
2022/06/24 08:17:19;;;;;;;;;;;12.10;99.90;;;;;;5011350;28;19905;-72
2022/06/24 08:19:45;;;;;;;;;;;12.10;99.90;;;;;;5011727;28;20264;-72
2022/06/24 08:22:12;;;;;;;;;;;12.10;99.90;;;;;;5008245;28;19948;-72
2022/06/24 08:24:40;;;;;;;;;;;12.00;99.90;;;;;;5013442;28;19912;-72
2022/06/24 08:27:07;;;;;;;;;;;12.00;99.90;;;;;;5010855;28;19920;-72
2022/06/24 08:29:34;;;;;;;;;;;12.00;99.90;;;;;;5011499;28;19913;-71
2022/06/24 08:32:00;;;;;;;;;;;12.00;99.90;;;;;;5010032;28;19905;-71
2022/06/24 08:34:27;;;;;;;;;;;12.00;99.90;;;;;;5011396;28;19963;-71
2022/06/24 08:36:54;;;;;;;;;;;11.90;99.90;;;;;;5010545;28;19920;-71
2022/06/24 08:39:20;;;;;;;;;;;11.90;99.90;;;;;;5013117;28;20374;-71
2022/06/24 08:41:48;;;;;;;;;;;11.90;99.90;;;;;;5012435;28;19917;-72
2022/06/24 08:44:15;;;;;;;;;;;11.90;99.90;;;;;;5010907;28;20362;-72
2022/06/24 08:46:42;;;;;;;;;;;11.90;99.90;;;;;;5010571;28;19916;-72
2022/06/24 08:49:09;;;;;;;;;;;11.80;99.90;;;;;;5009655;28;19910;-72
2022/06/24 08:51:36;;;;;;;;;;;11.80;99.90;;;;;;5010978;28;19924;-72
2022/06/24 08:54:03;;;;;;;;;;;11.80;99.90;;;;;;5010960;28;20468;-72
2022/06/24 08:56:30;;;;;;;;;;;11.80;99.90;;;;;;5012334;28;19905;-72
2022/06/24 08:58:57;;;;;;;;;;;11.80;99.90;;;;;;5011235;28;20371;-72
2022/06/24 09:01:24;;;;;;;;;;;11.80;99.90;;;;;;5011925;28;19917;-72
2022/06/24 09:03:50;;;;;;;;;;;11.80;99.90;;;;;;5012172;28;19906;-72
2022/06/24 09:06:17;;;;;;;;;;;11.80;99.90;;;;;;5011687;28;19968;-72
2022/06/24 09:08:51;;;;;;;;;;;11.80;99.90;;;;;;5009671;28;19929;-72
2022/06/24 09:11:18;;;;;;;;;;;11.70;99.90;;;;;;5012012;28;19905;-72
2022/06/24 09:13:55;;;;;;;;;;;11.70;99.90;;;;;;5012252;28;19955;-72
2022/06/24 09:16:24;;;;;;;;;;;11.70;99.90;;;;;;5010847;28;19909;-72
2022/06/24 09:19:01;;;;;;;;;;;11.80;99.90;;;;;;5012134;28;19909;-72
2022/06/24 09:21:29;;;;;;;;;;;11.70;99.90;;;;;;5011706;28;20408;-72
2022/06/24 09:23:57;;;;;;;;;;;11.70;99.90;;;;;;5012040;28;19918;-72
2022/06/24 09:26:34;;;;;;;;;;;11.70;99.90;;;;;;5010887;28;19905;-72
2022/06/24 09:29:03;;;;;;;;;;;11.70;99.90;;;;;;5009920;28;19916;-72
2022/06/24 09:31:31;;;;;;;;;;;11.70;99.90;;;;;;5011531;28;20012;-72
2022/06/24 09:34:09;;;;;;;;;;;11.70;99.90;;;;;;5011757;28;19913;-72
2022/06/24 09:36:36;;;;;;;;;;;11.60;99.90;;;;;;5011997;28;19912;-72
2022/06/24 09:39:08;;;;;;;;;;;11.60;99.90;;;;;;5009417;28;19912;-72
2022/06/24 09:41:45;;;;;;;;;;;11.60;99.90;;;;;;5012336;28;19924;-72
2022/06/24 09:44:12;;;;;;;;;;;11.50;99.90;;;;;;5011873;28;19959;-72
2022/06/24 09:46:39;;;;;;;;;;;11.50;99.90;;;;;;5012584;28;19906;-72
2022/06/24 09:49:07;;;;;;;;;;;11.50;99.90;;;;;;5014638;28;19905;-72
2022/06/24 09:51:34;;;;;;;;;;;11.50;99.90;;;;;;5015622;28;19905;-72
2022/06/24 09:54:02;;;;;;;;;;;11.50;99.90;;;;;;5014482;28;19948;-72
2022/06/24 09:56:29;;;;;;;;;;;11.50;99.90;;;;;;5014909;28;19906;-72
2022/06/24 10:01:41;;;;;;;;;;;11.60;99.90;;;;;;5015573;28;20020;-72
2022/06/24 10:04:14;;;;;;;;;;;11.60;99.90;;;;;;5012880;28;20263;-72
2022/06/24 10:06:45;;;;;;;;;;;11.60;99.90;;;;;;5012403;28;19960;-72
2022/06/24 10:09:12;;;;;;;;;;;11.50;99.90;;;;;;5012961;28;19905;-72
2022/06/24 10:11:41;;;;;;;;;;;11.50;99.90;;;;;;5015209;28;19909;-72
2022/06/24 10:14:09;;;;;;;;;;;11.50;99.90;;;;;;5002762;28;20358;-72
2022/06/24 10:16:36;;;;;;;;;;;11.50;99.90;;;;;;5012609;28;20282;-72
2022/06/24 10:19:04;;;;;;;;;;;11.50;99.90;;;;;;5015850;28;20412;-72
2022/06/24 10:21:30;;;;;;;;;;;11.50;99.90;;;;;;5006810;28;19913;-72
2022/06/24 10:23:57;;;;;;;;;;;11.50;99.90;;;;;;5005984;28;19968;-72
2022/06/24 10:26:28;;;;;;;;;;;11.50;99.90;;;;;;5012251;28;19917;-72
2022/06/24 10:29:04;;;;;;;;;;;11.50;99.90;;;;;;5010990;28;19917;-72
2022/06/24 10:31:43;;;;;;;;;;;11.50;99.90;;;;;;5013022;28;20247;-72
2022/06/24 10:34:10;;;;;;;;;;;11.50;99.90;;;;;;5013983;28;19949;-72
2022/06/24 10:36:37;;;;;;;;;;;11.50;99.90;;;;;;5013738;28;19909;-72
2022/06/24 10:39:10;;;;;;;;;;;11.50;99.90;;;;;;5014534;28;20287;-72
2022/06/24 10:41:38;;;;;;;;;;;11.50;99.90;;;;;;5010327;28;19956;-72
2022/06/24 10:44:22;;;;;;;;;;;11.60;99.90;;;;;;5012714;28;19905;-72
2022/06/24 10:47:12;;;;;;;;;;;11.60;99.90;;;;;;5012523;28;19955;-72
2022/06/24 10:49:54;;;;;;;;;;;11.50;99.90;;;;;;4984136;28;19952;-72
2022/06/24 10:52:33;;;;;;;;;;;11.60;99.90;;;;;;5014038;28;20429;-72
2022/06/24 10:55:29;;;;;;;;;;;11.60;99.90;;;;;;5006925;28;19906;-72
2022/06/24 10:58:03;;;;;;;;;;;11.60;99.90;;;;;;5009279;28;19905;-72
2022/06/24 11:00:39;;;;;;;;;;;11.60;99.90;;;;;;5011680;28;19917;-72
2022/06/24 11:03:06;;;;;;;;;;;11.60;99.90;;;;;;5012365;28;20388;-73
2022/06/24 11:05:34;;;;;;;;;;;11.60;99.90;;;;;;5013105;28;19916;-73
2022/06/24 11:08:01;;;;;;;;;;;11.60;99.90;;;;;;5013283;28;19925;-73
2022/06/24 11:10:31;;;;;;;;;;;11.60;99.90;;;;;;5010658;28;19956;-73
2022/06/24 11:12:59;;;;;;;;;;;11.60;99.90;;;;;;5010036;28;19909;-73
2022/06/24 11:15:35;;;;;;;;;;;11.60;99.90;;;;;;5013758;28;19916;-73
2022/06/24 11:18:09;;;;;;;;;;;11.50;99.90;;;;;;5012547;28;19906;-73
2022/06/24 11:20:37;;;;;;;;;;;11.60;99.90;;;;;;5013275;28;19917;-73
2022/06/24 11:23:08;;;;;;;;;;;11.60;99.90;;;;;;5009134;28;20351;-73
2022/06/24 11:25:35;;;;;;;;;;;11.60;99.90;;;;;;5011844;28;19910;-73
2022/06/24 11:28:02;;;;;;;;;;;11.60;99.90;;;;;;5012106;28;19913;-73
2022/06/24 11:30:29;;;;;;;;;;;11.50;99.90;;;;;;5013420;28;19913;-73
2022/06/24 11:32:57;;;;;;;;;;;11.60;99.90;;;;;;5010909;28;19916;-73
2022/06/24 11:35:24;;;;;;;;;;;11.60;99.90;;;;;;5011474;28;19905;-73
2022/06/24 11:37:51;;;;;;;;;;;11.60;99.90;;;;;;5012341;28;19932;-73
2022/06/24 11:40:25;;;;;;;;;;;11.60;99.90;;;;;;5013690;28;19905;-73
2022/06/24 11:42:55;;;;;;;;;;;11.60;99.90;;;;;;5010124;28;20005;-73
2022/06/24 11:45:38;;;;;;;;;;;11.60;99.90;;;;;;5010300;28;20011;-73
2022/06/24 11:48:09;;;;;;;;;;;11.60;99.90;;;;;;5012514;28;20298;-73
2022/06/24 11:50:36;;;;;;;;;;;11.60;99.90;;;;;;5012773;28;19905;-72
2022/06/24 11:53:03;;;;;;;;;;;11.60;99.90;;;;;;5013167;28;19944;-73
2022/06/24 11:55:30;;;;;;;;;;;11.60;99.90;;;;;;5013455;28;19912;-73
2022/06/24 11:57:58;;;;;;;;;;;11.60;99.90;;;;;;5011396;28;19910;-73
2022/06/24 12:00:26;;;;;;;;;;;11.60;99.90;;;;;;5011733;28;19905;-73
2022/06/24 12:02:54;;;;;;;;;;;11.70;99.90;;;;;;5010302;28;19910;-73
2022/06/24 12:05:21;;;;;;;;;;;11.60;99.90;;;;;;5012713;28;19913;-73
2022/06/24 12:07:48;;;;;;;;;;;11.60;99.90;;;;;;5011643;28;19967;-73
2022/06/24 12:10:15;;;;;;;;;;;11.60;99.90;;;;;;5012872;28;20381;-73
2022/06/24 12:13:01;;;;;;;;;;;11.60;99.90;;;;;;5012801;28;19917;-73
2022/06/24 12:15:37;;;;;;;;;;;11.60;99.90;;;;;;5013742;28;19960;-73
2022/06/24 12:18:12;;;;;;;;;;;11.60;99.90;;;;;;5009531;28;19949;-73
2022/06/24 12:20:39;;;;;;;;;;;11.60;99.90;;;;;;5012001;28;19913;-73
2022/06/24 12:23:14;;;;;;;;;;;11.60;99.90;;;;;;5011058;28;19937;-73
2022/06/24 12:25:42;;;;;;;;;;;11.60;99.90;;;;;;5012638;28;21264;-73
2022/06/24 12:28:13;;;;;;;;;;;11.60;99.90;;;;;;5012683;28;19912;-73
2022/06/24 12:30:39;;;;;;;;;;;11.60;99.90;;;;;;5012787;28;19971;-73
2022/06/24 12:33:10;;;;;;;;;;;11.60;99.90;;;;;;5013635;28;19905;-72
2022/06/24 12:35:49;;;;;;;;;;;11.60;99.90;;;;;;5012957;28;19920;-73
2022/06/24 12:38:15;;;;;;;;;;;11.60;99.90;;;;;;5010355;28;20354;-73
2022/06/24 12:40:42;;;;;;;;;;;11.60;99.90;;;;;;5004752;28;19968;-73
2022/06/24 12:43:13;;;;;;;;;;;11.60;99.90;;;;;;5004872;28;19916;-73
2022/06/24 12:45:41;;;;;;;;;;;11.50;99.90;;;;;;5004897;28;19905;-72
2022/06/24 12:51:00;;;;;;;;;;;11.60;99.90;;;;;;5004408;28;19952;-73
2022/06/24 12:53:27;;;;;;;;;;;11.60;99.90;;;;;;5005441;28;19914;-73
2022/06/24 12:55:53;;;;;;;;;;;11.60;99.90;;;;;;5003876;28;19963;-73
2022/06/24 12:58:20;;;;;;;;;;;11.50;99.90;;;;;;5012604;28;20000;-72
2022/06/24 13:00:47;;;;;;;;;;;11.50;99.90;;;;;;5013630;28;19961;-73
2022/06/24 13:03:18;;;;;;;;;;;11.50;99.90;;;;;;5013522;28;19906;-73
2022/06/24 13:05:45;;;;;;;;;;;11.50;99.90;;;;;;5013298;28;19905;-73
2022/06/24 13:08:11;;;;;;;;;;;11.50;99.90;;;;;;5013655;28;19921;-73
2022/06/24 13:10:38;;;;;;;;;;;11.50;99.90;;;;;;5011073;28;19906;-73
2022/06/24 13:13:05;;;;;;;;;;;11.40;99.90;;;;;;5005123;28;19909;-73
2022/06/24 13:15:32;;;;;;;;;;;11.40;99.90;;;;;;5008500;28;19967;-72
2022/06/24 13:17:59;;;;;;;;;;;11.40;99.90;;;;;;5014506;28;19906;-73
2022/06/24 13:20:25;;;;;;;;;;;11.30;99.90;;;;;;5013257;28;19905;-72
2022/06/24 13:22:52;;;;;;;;;;;11.30;99.90;;;;;;5014158;28;19909;-72
2022/06/24 13:25:19;;;;;;;;;;;11.30;99.90;;;;;;5014052;28;19999;-73
2022/06/24 13:27:48;;;;;;;;;;;11.30;99.90;;;;;;5013924;28;20011;-72
2022/06/24 13:30:15;;;;;;;;;;;11.30;99.90;;;;;;5013919;28;20354;-73
2022/06/24 13:32:41;;;;;;;;;;;11.30;99.90;;;;;;5013997;28;19905;-72
2022/06/24 13:35:08;;;;;;;;;;;11.30;99.90;;;;;;5013785;28;19906;-72
2022/06/24 13:37:35;;;;;;;;;;;11.30;99.90;;;;;;5013758;28;19905;-72
2022/06/24 13:40:02;;;;;;;;;;;11.20;99.90;;;;;;5013998;28;20354;-73
2022/06/24 13:42:29;;;;;;;;;;;11.30;99.90;;;;;;5013949;28;19917;-72
2022/06/24 13:44:56;;;;;;;;;;;11.20;99.90;;;;;;5013796;28;19913;-73
2022/06/24 13:47:22;;;;;;;;;;;11.20;99.90;;;;;;5013831;28;19906;-72
2022/06/24 13:49:49;;;;;;;;;;;11.20;99.90;;;;;;5014068;28;19905;-72
2022/06/24 13:52:16;;;;;;;;;;;11.20;99.90;;;;;;5013775;28;19905;-72
2022/06/24 13:54:42;;;;;;;;;;;11.20;99.90;;;;;;5013544;28;19905;-72
2022/06/24 13:57:09;;;;;;;;;;;11.20;99.90;;;;;;5013656;28;19945;-72
2022/06/24 13:59:36;;;;;;;;;;;11.20;99.90;;;;;;5013682;28;19909;-73
2022/06/24 14:02:02;;;;;;;;;;;11.20;99.90;;;;;;5013746;28;19913;-72
2022/06/24 14:04:29;;;;;;;;;;;11.20;99.90;;;;;;5013801;28;19909;-72
2022/06/24 14:06:55;;;;;;;;;;;11.20;99.90;;;;;;5013829;28;19921;-72
2022/06/24 14:09:22;;;;;;;;;;;11.20;99.90;;;;;;5013750;28;19905;-72
2022/06/24 14:11:49;;;;;;;;;;;11.20;99.90;;;;;;5013561;28;19905;-73
2022/06/24 14:14:17;;;;;;;;;;;11.30;99.90;;;;;;5013495;28;19905;-72
2022/06/24 14:16:44;;;;;;;;;;;11.20;99.90;;;;;;5013418;28;19909;-70
2022/06/24 14:19:10;;;;;;;;;;;11.20;99.90;;;;;;5013449;28;19906;-71
2022/06/24 14:21:37;;;;;;;;;;;11.30;99.90;;;;;;5013577;28;20339;-72
2022/06/24 14:26:48;;;;;;;;;;;11.30;99.90;;;;;;5014094;28;19960;-71
2022/06/24 14:29:15;;;;;;;;;;;11.20;99.90;;;;;;5011986;28;20020;-71
2022/06/24 14:31:42;;;;;;;;;;;11.20;99.90;;;;;;5013608;28;20372;-71
2022/06/24 14:34:08;;;;;;;;;;;11.20;99.90;;;;;;5015587;28;19906;-71